sensor_id;sensor_type;location;lat;lon;timestamp;P1;durP1;ratioP1;P2;durP2;ratioP2
56653;SDS011;45096;52.302;4.634;2022-11-15T00:01:06;23.52;;;14.30;;
56653;SDS011;45096;52.302;4.634;2022-11-15T00:03:33;27.75;;;15.50;;
56653;SDS011;45096;52.302;4.634;2022-11-15T00:06:01;24.40;;;14.88;;
56653;SDS011;45096;52.302;4.634;2022-11-15T00:08:28;24.20;;;16.10;;
56653;SDS011;45096;52.302;4.634;2022-11-15T00:10:54;30.70;;;16.65;;
56653;SDS011;45096;52.302;4.634;2022-11-15T00:13:19;22.90;;;14.40;;
56653;SDS011;45096;52.302;4.634;2022-11-15T00:15:45;29.35;;;16.88;;
56653;SDS011;45096;52.302;4.634;2022-11-15T00:18:11;30.73;;;16.13;;
56653;SDS011;45096;52.302;4.634;2022-11-15T00:20:39;28.45;;;15.25;;
56653;SDS011;45096;52.302;4.634;2022-11-15T00:23:04;28.88;;;15.77;;
56653;SDS011;45096;52.302;4.634;2022-11-15T00:25:30;26.58;;;15.82;;
56653;SDS011;45096;52.302;4.634;2022-11-15T00:27:55;24.92;;;15.90;;
56653;SDS011;45096;52.302;4.634;2022-11-15T00:30:21;32.80;;;17.38;;
56653;SDS011;45096;52.302;4.634;2022-11-15T00:32:46;25.13;;;15.65;;
56653;SDS011;45096;52.302;4.634;2022-11-15T00:35:12;29.70;;;16.65;;
56653;SDS011;45096;52.302;4.634;2022-11-15T00:37:39;28.48;;;15.88;;
56653;SDS011;45096;52.302;4.634;2022-11-15T00:40:04;28.67;;;16.33;;
56653;SDS011;45096;52.302;4.634;2022-11-15T00:42:31;28.15;;;17.17;;
56653;SDS011;45096;52.302;4.634;2022-11-15T00:44:56;29.17;;;16.02;;
56653;SDS011;45096;52.302;4.634;2022-11-15T00:47:21;26.85;;;16.15;;
56653;SDS011;45096;52.302;4.634;2022-11-15T00:49:47;29.23;;;16.98;;
56653;SDS011;45096;52.302;4.634;2022-11-15T00:52:12;26.98;;;15.75;;
56653;SDS011;45096;52.302;4.634;2022-11-15T00:54:39;28.50;;;16.85;;
56653;SDS011;45096;52.302;4.634;2022-11-15T00:57:04;30.45;;;17.23;;
56653;SDS011;45096;52.302;4.634;2022-11-15T00:59:30;31.85;;;16.63;;
56653;SDS011;45096;52.302;4.634;2022-11-15T01:01:55;27.08;;;15.98;;
56653;SDS011;45096;52.302;4.634;2022-11-15T01:04:20;26.52;;;15.95;;
56653;SDS011;45096;52.302;4.634;2022-11-15T01:06:46;30.60;;;17.17;;
56653;SDS011;45096;52.302;4.634;2022-11-15T01:09:11;27.05;;;16.83;;
56653;SDS011;45096;52.302;4.634;2022-11-15T01:11:38;27.98;;;15.43;;
56653;SDS011;45096;52.302;4.634;2022-11-15T01:14:03;28.67;;;16.17;;
56653;SDS011;45096;52.302;4.634;2022-11-15T01:16:29;31.42;;;16.25;;
56653;SDS011;45096;52.302;4.634;2022-11-15T01:18:54;31.00;;;17.02;;
56653;SDS011;45096;52.302;4.634;2022-11-15T01:21:20;27.70;;;15.48;;
56653;SDS011;45096;52.302;4.634;2022-11-15T01:23:46;26.02;;;15.38;;
56653;SDS011;45096;52.302;4.634;2022-11-15T01:26:12;28.08;;;16.75;;
56653;SDS011;45096;52.302;4.634;2022-11-15T01:28:40;31.77;;;17.10;;
56653;SDS011;45096;52.302;4.634;2022-11-15T01:31:09;27.05;;;16.92;;
56653;SDS011;45096;52.302;4.634;2022-11-15T01:33:37;29.02;;;15.27;;
56653;SDS011;45096;52.302;4.634;2022-11-15T01:36:03;30.35;;;16.77;;
56653;SDS011;45096;52.302;4.634;2022-11-15T01:38:29;29.88;;;16.13;;
56653;SDS011;45096;52.302;4.634;2022-11-15T01:40:54;29.67;;;16.50;;
56653;SDS011;45096;52.302;4.634;2022-11-15T01:43:24;29.50;;;17.35;;
56653;SDS011;45096;52.302;4.634;2022-11-15T01:45:52;31.23;;;17.55;;
56653;SDS011;45096;52.302;4.634;2022-11-15T01:48:20;32.22;;;17.42;;
56653;SDS011;45096;52.302;4.634;2022-11-15T01:50:46;30.17;;;15.70;;
56653;SDS011;45096;52.302;4.634;2022-11-15T01:53:11;31.15;;;17.55;;
56653;SDS011;45096;52.302;4.634;2022-11-15T01:55:37;28.25;;;16.58;;
56653;SDS011;45096;52.302;4.634;2022-11-15T01:58:03;29.38;;;17.65;;
56653;SDS011;45096;52.302;4.634;2022-11-15T02:00:29;28.65;;;16.92;;
56653;SDS011;45096;52.302;4.634;2022-11-15T02:02:56;25.30;;;15.40;;
56653;SDS011;45096;52.302;4.634;2022-11-15T02:05:21;23.48;;;15.43;;
56653;SDS011;45096;52.302;4.634;2022-11-15T02:07:47;29.00;;;16.40;;
56653;SDS011;45096;52.302;4.634;2022-11-15T02:10:14;27.00;;;16.52;;
56653;SDS011;45096;52.302;4.634;2022-11-15T02:12:42;29.35;;;16.75;;
56653;SDS011;45096;52.302;4.634;2022-11-15T02:15:08;28.00;;;15.95;;
56653;SDS011;45096;52.302;4.634;2022-11-15T02:17:47;27.80;;;15.30;;
56653;SDS011;45096;52.302;4.634;2022-11-15T02:23:28;25.67;;;15.23;;
56653;SDS011;45096;52.302;4.634;2022-11-15T02:26:07;28.30;;;17.08;;
56653;SDS011;45096;52.302;4.634;2022-11-15T02:28:48;29.35;;;15.93;;
56653;SDS011;45096;52.302;4.634;2022-11-15T02:31:20;24.17;;;15.00;;
56653;SDS011;45096;52.302;4.634;2022-11-15T02:33:52;32.90;;;17.67;;
56653;SDS011;45096;52.302;4.634;2022-11-15T02:36:24;26.20;;;14.60;;
56653;SDS011;45096;52.302;4.634;2022-11-15T02:38:58;29.00;;;15.43;;
56653;SDS011;45096;52.302;4.634;2022-11-15T02:41:25;25.92;;;16.38;;
56653;SDS011;45096;52.302;4.634;2022-11-15T02:43:56;32.20;;;16.75;;
56653;SDS011;45096;52.302;4.634;2022-11-15T02:46:29;25.58;;;16.83;;
56653;SDS011;45096;52.302;4.634;2022-11-15T02:48:58;28.83;;;15.43;;
56653;SDS011;45096;52.302;4.634;2022-11-15T02:51:23;27.35;;;15.65;;
56653;SDS011;45096;52.302;4.634;2022-11-15T02:53:49;31.55;;;15.55;;
56653;SDS011;45096;52.302;4.634;2022-11-15T02:56:14;30.60;;;16.42;;
56653;SDS011;45096;52.302;4.634;2022-11-15T02:58:45;27.27;;;14.80;;
56653;SDS011;45096;52.302;4.634;2022-11-15T03:01:23;30.90;;;17.23;;
56653;SDS011;45096;52.302;4.634;2022-11-15T03:03:59;29.38;;;16.60;;
56653;SDS011;45096;52.302;4.634;2022-11-15T03:06:32;25.52;;;14.48;;
56653;SDS011;45096;52.302;4.634;2022-11-15T03:09:05;32.40;;;16.75;;
56653;SDS011;45096;52.302;4.634;2022-11-15T03:11:32;30.23;;;16.38;;
56653;SDS011;45096;52.302;4.634;2022-11-15T03:14:02;29.85;;;16.58;;
56653;SDS011;45096;52.302;4.634;2022-11-15T03:16:37;27.40;;;14.73;;
56653;SDS011;45096;52.302;4.634;2022-11-15T03:19:05;27.38;;;15.57;;
56653;SDS011;45096;52.302;4.634;2022-11-15T03:21:32;30.02;;;17.55;;
56653;SDS011;45096;52.302;4.634;2022-11-15T03:23:58;28.10;;;15.52;;
56653;SDS011;45096;52.302;4.634;2022-11-15T03:26:26;33.13;;;17.83;;
56653;SDS011;45096;52.302;4.634;2022-11-15T03:28:53;30.27;;;16.20;;
56653;SDS011;45096;52.302;4.634;2022-11-15T03:31:21;27.48;;;15.52;;
56653;SDS011;45096;52.302;4.634;2022-11-15T03:33:49;27.02;;;16.33;;
56653;SDS011;45096;52.302;4.634;2022-11-15T03:36:16;27.35;;;15.52;;
56653;SDS011;45096;52.302;4.634;2022-11-15T03:38:42;27.02;;;15.93;;
56653;SDS011;45096;52.302;4.634;2022-11-15T03:41:11;28.35;;;16.30;;
56653;SDS011;45096;52.302;4.634;2022-11-15T03:43:42;29.95;;;16.08;;
56653;SDS011;45096;52.302;4.634;2022-11-15T03:46:13;29.42;;;17.30;;
56653;SDS011;45096;52.302;4.634;2022-11-15T03:48:41;32.88;;;17.63;;
56653;SDS011;45096;52.302;4.634;2022-11-15T03:51:09;30.77;;;16.00;;
56653;SDS011;45096;52.302;4.634;2022-11-15T03:53:35;27.85;;;15.15;;
56653;SDS011;45096;52.302;4.634;2022-11-15T03:56:01;32.97;;;16.77;;
56653;SDS011;45096;52.302;4.634;2022-11-15T03:58:26;29.08;;;17.27;;
56653;SDS011;45096;52.302;4.634;2022-11-15T04:00:52;28.67;;;17.10;;
56653;SDS011;45096;52.302;4.634;2022-11-15T04:03:17;26.50;;;16.35;;
56653;SDS011;45096;52.302;4.634;2022-11-15T04:05:42;27.85;;;17.33;;
56653;SDS011;45096;52.302;4.634;2022-11-15T04:08:09;31.25;;;16.98;;
56653;SDS011;45096;52.302;4.634;2022-11-15T04:10:35;35.95;;;17.88;;
56653;SDS011;45096;52.302;4.634;2022-11-15T04:13:01;34.75;;;17.35;;
56653;SDS011;45096;52.302;4.634;2022-11-15T04:15:27;26.75;;;15.27;;
56653;SDS011;45096;52.302;4.634;2022-11-15T04:17:53;28.45;;;16.73;;
56653;SDS011;45096;52.302;4.634;2022-11-15T04:20:20;30.55;;;15.82;;
56653;SDS011;45096;52.302;4.634;2022-11-15T04:22:46;27.77;;;16.27;;
56653;SDS011;45096;52.302;4.634;2022-11-15T04:25:13;27.75;;;15.80;;
56653;SDS011;45096;52.302;4.634;2022-11-15T04:27:38;28.05;;;16.08;;
56653;SDS011;45096;52.302;4.634;2022-11-15T04:30:04;28.65;;;16.85;;
56653;SDS011;45096;52.302;4.634;2022-11-15T04:32:31;27.83;;;15.05;;
56653;SDS011;45096;52.302;4.634;2022-11-15T04:34:56;26.08;;;15.30;;
56653;SDS011;45096;52.302;4.634;2022-11-15T04:37:22;25.88;;;15.63;;
56653;SDS011;45096;52.302;4.634;2022-11-15T04:39:47;30.10;;;16.20;;
56653;SDS011;45096;52.302;4.634;2022-11-15T04:42:14;24.38;;;15.52;;
56653;SDS011;45096;52.302;4.634;2022-11-15T04:44:39;27.83;;;15.32;;
56653;SDS011;45096;52.302;4.634;2022-11-15T04:47:05;27.15;;;14.60;;
56653;SDS011;45096;52.302;4.634;2022-11-15T04:49:30;28.77;;;16.58;;
56653;SDS011;45096;52.302;4.634;2022-11-15T04:51:55;25.48;;;14.43;;
56653;SDS011;45096;52.302;4.634;2022-11-15T04:54:21;25.30;;;14.70;;
56653;SDS011;45096;52.302;4.634;2022-11-15T04:56:46;26.48;;;14.70;;
56653;SDS011;45096;52.302;4.634;2022-11-15T04:59:13;24.85;;;14.43;;
56653;SDS011;45096;52.302;4.634;2022-11-15T05:01:38;21.92;;;14.00;;
56653;SDS011;45096;52.302;4.634;2022-11-15T05:04:04;23.30;;;15.00;;
56653;SDS011;45096;52.302;4.634;2022-11-15T05:06:29;26.10;;;14.55;;
56653;SDS011;45096;52.302;4.634;2022-11-15T05:08:55;26.10;;;15.45;;
56653;SDS011;45096;52.302;4.634;2022-11-15T05:11:21;24.17;;;13.70;;
56653;SDS011;45096;52.302;4.634;2022-11-15T05:13:46;25.50;;;13.80;;
56653;SDS011;45096;52.302;4.634;2022-11-15T05:16:13;26.40;;;14.75;;
56653;SDS011;45096;52.302;4.634;2022-11-15T05:18:38;23.52;;;15.07;;
56653;SDS011;45096;52.302;4.634;2022-11-15T05:21:04;21.48;;;13.32;;
56653;SDS011;45096;52.302;4.634;2022-11-15T05:23:30;24.45;;;14.45;;
56653;SDS011;45096;52.302;4.634;2022-11-15T05:25:58;22.38;;;14.75;;
56653;SDS011;45096;52.302;4.634;2022-11-15T05:28:23;23.30;;;13.73;;
56653;SDS011;45096;52.302;4.634;2022-11-15T05:30:49;23.60;;;13.52;;
56653;SDS011;45096;52.302;4.634;2022-11-15T05:33:15;20.33;;;12.68;;
56653;SDS011;45096;52.302;4.634;2022-11-15T05:35:42;19.35;;;12.32;;
56653;SDS011;45096;52.302;4.634;2022-11-15T05:38:11;19.05;;;11.90;;
56653;SDS011;45096;52.302;4.634;2022-11-15T05:40:36;21.13;;;12.98;;
56653;SDS011;45096;52.302;4.634;2022-11-15T05:43:02;20.13;;;11.93;;
56653;SDS011;45096;52.302;4.634;2022-11-15T05:45:29;20.02;;;12.95;;
56653;SDS011;45096;52.302;4.634;2022-11-15T05:47:55;16.35;;;12.23;;
56653;SDS011;45096;52.302;4.634;2022-11-15T05:50:23;17.88;;;11.32;;
56653;SDS011;45096;52.302;4.634;2022-11-15T05:52:48;18.27;;;12.63;;
56653;SDS011;45096;52.302;4.634;2022-11-15T05:55:14;19.25;;;11.52;;
56653;SDS011;45096;52.302;4.634;2022-11-15T05:57:40;18.27;;;11.85;;
56653;SDS011;45096;52.302;4.634;2022-11-15T06:00:06;15.30;;;11.05;;
56653;SDS011;45096;52.302;4.634;2022-11-15T06:02:32;20.00;;;11.82;;
56653;SDS011;45096;52.302;4.634;2022-11-15T06:04:57;17.55;;;11.30;;
56653;SDS011;45096;52.302;4.634;2022-11-15T06:07:24;15.65;;;11.00;;
56653;SDS011;45096;52.302;4.634;2022-11-15T06:09:49;17.02;;;12.00;;
56653;SDS011;45096;52.302;4.634;2022-11-15T06:12:15;17.05;;;11.00;;
56653;SDS011;45096;52.302;4.634;2022-11-15T06:14:40;16.60;;;10.50;;
56653;SDS011;45096;52.302;4.634;2022-11-15T06:17:06;17.10;;;11.27;;
56653;SDS011;45096;52.302;4.634;2022-11-15T06:19:31;18.70;;;10.05;;
56653;SDS011;45096;52.302;4.634;2022-11-15T06:21:56;15.30;;;9.90;;
56653;SDS011;45096;52.302;4.634;2022-11-15T06:24:23;16.50;;;10.82;;
56653;SDS011;45096;52.302;4.634;2022-11-15T06:26:49;14.63;;;9.70;;
56653;SDS011;45096;52.302;4.634;2022-11-15T06:29:14;16.77;;;10.40;;
56653;SDS011;45096;52.302;4.634;2022-11-15T06:31:39;14.68;;;9.70;;
56653;SDS011;45096;52.302;4.634;2022-11-15T06:34:05;12.30;;;8.93;;
56653;SDS011;45096;52.302;4.634;2022-11-15T06:36:30;15.40;;;9.43;;
56653;SDS011;45096;52.302;4.634;2022-11-15T06:38:56;13.10;;;10.20;;
56653;SDS011;45096;52.302;4.634;2022-11-15T06:41:22;14.00;;;9.25;;
56653;SDS011;45096;52.302;4.634;2022-11-15T06:43:48;14.52;;;9.73;;
56653;SDS011;45096;52.302;4.634;2022-11-15T06:46:13;11.02;;;8.20;;
56653;SDS011;45096;52.302;4.634;2022-11-15T06:48:39;12.38;;;8.15;;
56653;SDS011;45096;52.302;4.634;2022-11-15T06:51:04;13.68;;;8.40;;
56653;SDS011;45096;52.302;4.634;2022-11-15T06:53:30;12.15;;;9.10;;
56653;SDS011;45096;52.302;4.634;2022-11-15T06:55:58;12.02;;;8.70;;
56653;SDS011;45096;52.302;4.634;2022-11-15T06:58:25;13.02;;;8.45;;
56653;SDS011;45096;52.302;4.634;2022-11-15T07:00:50;11.32;;;8.55;;
56653;SDS011;45096;52.302;4.634;2022-11-15T07:03:16;12.05;;;7.82;;
56653;SDS011;45096;52.302;4.634;2022-11-15T07:05:41;8.57;;;7.68;;
56653;SDS011;45096;52.302;4.634;2022-11-15T07:08:07;11.27;;;7.45;;
56653;SDS011;45096;52.302;4.634;2022-11-15T07:10:32;10.88;;;7.57;;
56653;SDS011;45096;52.302;4.634;2022-11-15T07:12:57;11.50;;;8.23;;
56653;SDS011;45096;52.302;4.634;2022-11-15T07:15:25;11.10;;;8.30;;
56653;SDS011;45096;52.302;4.634;2022-11-15T07:17:51;8.60;;;6.70;;
56653;SDS011;45096;52.302;4.634;2022-11-15T07:20:17;10.68;;;7.80;;
56653;SDS011;45096;52.302;4.634;2022-11-15T07:22:42;8.88;;;6.47;;
56653;SDS011;45096;52.302;4.634;2022-11-15T07:25:08;11.18;;;8.15;;
56653;SDS011;45096;52.302;4.634;2022-11-15T07:27:34;10.15;;;6.63;;
56653;SDS011;45096;52.302;4.634;2022-11-15T07:29:59;7.50;;;6.65;;
56653;SDS011;45096;52.302;4.634;2022-11-15T07:32:26;7.57;;;6.43;;
56653;SDS011;45096;52.302;4.634;2022-11-15T07:34:52;11.68;;;7.38;;
56653;SDS011;45096;52.302;4.634;2022-11-15T07:37:17;8.27;;;6.78;;
56653;SDS011;45096;52.302;4.634;2022-11-15T07:39:43;9.57;;;6.82;;
56653;SDS011;45096;52.302;4.634;2022-11-15T07:42:08;11.73;;;6.97;;
56653;SDS011;45096;52.302;4.634;2022-11-15T07:44:34;10.88;;;7.13;;
56653;SDS011;45096;52.302;4.634;2022-11-15T07:46:59;8.00;;;6.43;;
56653;SDS011;45096;52.302;4.634;2022-11-15T07:49:26;7.90;;;5.88;;
56653;SDS011;45096;52.302;4.634;2022-11-15T07:51:51;9.77;;;5.75;;
56653;SDS011;45096;52.302;4.634;2022-11-15T07:54:17;7.18;;;6.47;;
56653;SDS011;45096;52.302;4.634;2022-11-15T07:56:42;9.05;;;6.20;;
56653;SDS011;45096;52.302;4.634;2022-11-15T07:59:07;9.70;;;6.38;;
56653;SDS011;45096;52.302;4.634;2022-11-15T08:01:33;8.32;;;5.90;;
56653;SDS011;45096;52.302;4.634;2022-11-15T08:03:58;7.38;;;5.82;;
56653;SDS011;45096;52.302;4.634;2022-11-15T08:06:25;8.98;;;5.75;;
56653;SDS011;45096;52.302;4.634;2022-11-15T08:08:50;6.75;;;5.20;;
56653;SDS011;45096;52.302;4.634;2022-11-15T08:11:16;8.93;;;5.15;;
56653;SDS011;45096;52.302;4.634;2022-11-15T08:13:41;5.53;;;4.88;;
56653;SDS011;45096;52.302;4.634;2022-11-15T08:16:07;5.45;;;4.80;;
56653;SDS011;45096;52.302;4.634;2022-11-15T08:18:34;7.30;;;5.82;;
56653;SDS011;45096;52.302;4.634;2022-11-15T08:20:59;8.90;;;5.45;;
56653;SDS011;45096;52.302;4.634;2022-11-15T08:23:26;6.18;;;5.03;;
56653;SDS011;45096;52.302;4.634;2022-11-15T08:25:52;6.60;;;4.80;;
56653;SDS011;45096;52.302;4.634;2022-11-15T08:28:17;6.28;;;4.55;;
56653;SDS011;45096;52.302;4.634;2022-11-15T08:30:42;6.43;;;4.70;;
56653;SDS011;45096;52.302;4.634;2022-11-15T08:33:09;4.85;;;4.35;;
56653;SDS011;45096;52.302;4.634;2022-11-15T08:35:36;6.95;;;4.32;;
56653;SDS011;45096;52.302;4.634;2022-11-15T08:38:01;5.25;;;4.57;;
56653;SDS011;45096;52.302;4.634;2022-11-15T08:40:28;5.50;;;4.47;;
56653;SDS011;45096;52.302;4.634;2022-11-15T08:42:53;7.22;;;5.22;;
56653;SDS011;45096;52.302;4.634;2022-11-15T08:45:19;5.38;;;4.88;;
56653;SDS011;45096;52.302;4.634;2022-11-15T08:47:44;5.05;;;4.03;;
56653;SDS011;45096;52.302;4.634;2022-11-15T08:50:09;6.93;;;4.47;;
56653;SDS011;45096;52.302;4.634;2022-11-15T08:52:35;6.30;;;4.30;;
56653;SDS011;45096;52.302;4.634;2022-11-15T08:55:00;7.05;;;4.20;;
56653;SDS011;45096;52.302;4.634;2022-11-15T08:57:29;7.68;;;4.88;;
56653;SDS011;45096;52.302;4.634;2022-11-15T08:59:54;5.32;;;4.50;;
56653;SDS011;45096;52.302;4.634;2022-11-15T09:02:20;5.63;;;4.63;;
56653;SDS011;45096;52.302;4.634;2022-11-15T09:04:45;8.25;;;5.93;;
56653;SDS011;45096;52.302;4.634;2022-11-15T09:07:10;7.18;;;5.13;;
56653;SDS011;45096;52.302;4.634;2022-11-15T09:09:36;6.80;;;5.65;;
56653;SDS011;45096;52.302;4.634;2022-11-15T09:12:02;10.40;;;6.05;;
56653;SDS011;45096;52.302;4.634;2022-11-15T09:14:29;9.85;;;5.63;;
56653;SDS011;45096;52.302;4.634;2022-11-15T09:16:55;6.28;;;5.63;;
56653;SDS011;45096;52.302;4.634;2022-11-15T09:19:20;5.57;;;4.97;;
56653;SDS011;45096;52.302;4.634;2022-11-15T09:21:46;5.72;;;4.85;;
56653;SDS011;45096;52.302;4.634;2022-11-15T09:24:11;8.55;;;5.65;;
56653;SDS011;45096;52.302;4.634;2022-11-15T09:26:37;7.43;;;5.35;;
56653;SDS011;45096;52.302;4.634;2022-11-15T09:29:02;8.05;;;5.65;;
56653;SDS011;45096;52.302;4.634;2022-11-15T09:31:29;7.03;;;5.70;;
56653;SDS011;45096;52.302;4.634;2022-11-15T09:33:55;13.15;;;6.60;;
56653;SDS011;45096;52.302;4.634;2022-11-15T09:36:20;8.35;;;5.25;;
56653;SDS011;45096;52.302;4.634;2022-11-15T09:38:46;7.38;;;5.75;;
56653;SDS011;45096;52.302;4.634;2022-11-15T09:41:28;8.23;;;5.60;;
56653;SDS011;45096;52.302;4.634;2022-11-15T09:44:03;11.50;;;5.70;;
56653;SDS011;45096;52.302;4.634;2022-11-15T09:46:38;5.95;;;5.40;;
56653;SDS011;45096;52.302;4.634;2022-11-15T09:49:09;6.53;;;5.40;;
56653;SDS011;45096;52.302;4.634;2022-11-15T09:51:38;5.10;;;4.60;;
56653;SDS011;45096;52.302;4.634;2022-11-15T09:54:08;5.05;;;4.55;;
56653;SDS011;45096;52.302;4.634;2022-11-15T09:56:37;7.43;;;5.70;;
56653;SDS011;45096;52.302;4.634;2022-11-15T09:59:13;8.50;;;5.43;;
56653;SDS011;45096;52.302;4.634;2022-11-15T10:01:52;5.65;;;5.03;;
56653;SDS011;45096;52.302;4.634;2022-11-15T10:04:21;6.40;;;4.47;;
56653;SDS011;45096;52.302;4.634;2022-11-15T10:06:49;5.35;;;4.82;;
56653;SDS011;45096;52.302;4.634;2022-11-15T10:09:19;6.40;;;5.22;;
56653;SDS011;45096;52.302;4.634;2022-11-15T10:11:48;6.53;;;4.80;;
56653;SDS011;45096;52.302;4.634;2022-11-15T10:14:15;4.55;;;4.25;;
56653;SDS011;45096;52.302;4.634;2022-11-15T10:19:50;5.78;;;4.45;;
56653;SDS011;45096;52.302;4.634;2022-11-15T10:22:26;5.43;;;4.70;;
56653;SDS011;45096;52.302;4.634;2022-11-15T10:24:59;6.93;;;4.70;;
56653;SDS011;45096;52.302;4.634;2022-11-15T10:27:31;8.13;;;4.47;;
56653;SDS011;45096;52.302;4.634;2022-11-15T10:29:57;5.85;;;4.50;;
56653;SDS011;45096;52.302;4.634;2022-11-15T10:32:22;5.97;;;4.75;;
56653;SDS011;45096;52.302;4.634;2022-11-15T10:34:49;6.47;;;4.38;;
56653;SDS011;45096;52.302;4.634;2022-11-15T10:37:15;5.75;;;4.38;;
56653;SDS011;45096;52.302;4.634;2022-11-15T10:40:01;6.72;;;4.63;;
56653;SDS011;45096;52.302;4.634;2022-11-15T10:42:28;6.00;;;4.30;;
56653;SDS011;45096;52.302;4.634;2022-11-15T10:44:54;8.60;;;5.20;;
56653;SDS011;45096;52.302;4.634;2022-11-15T10:47:27;7.35;;;4.20;;
56653;SDS011;45096;52.302;4.634;2022-11-15T10:49:59;6.60;;;4.18;;
56653;SDS011;45096;52.302;4.634;2022-11-15T10:52:25;5.22;;;3.78;;
56653;SDS011;45096;52.302;4.634;2022-11-15T10:54:53;4.78;;;4.05;;
56653;SDS011;45096;52.302;4.634;2022-11-15T10:57:22;6.20;;;4.07;;
56653;SDS011;45096;52.302;4.634;2022-11-15T10:59:48;5.22;;;3.55;;
56653;SDS011;45096;52.302;4.634;2022-11-15T11:02:32;5.28;;;4.05;;
56653;SDS011;45096;52.302;4.634;2022-11-15T11:05:01;5.35;;;3.42;;
56653;SDS011;45096;52.302;4.634;2022-11-15T11:07:28;9.65;;;4.20;;
56653;SDS011;45096;52.302;4.634;2022-11-15T11:09:59;5.72;;;3.53;;
56653;SDS011;45096;52.302;4.634;2022-11-15T11:12:29;4.63;;;3.53;;
56653;SDS011;45096;52.302;4.634;2022-11-15T11:14:56;4.43;;;3.53;;
56653;SDS011;45096;52.302;4.634;2022-11-15T11:17:23;4.20;;;3.80;;
56653;SDS011;45096;52.302;4.634;2022-11-15T11:20:01;6.80;;;3.35;;
56653;SDS011;45096;52.302;4.634;2022-11-15T11:22:30;4.55;;;3.15;;
56653;SDS011;45096;52.302;4.634;2022-11-15T11:25:11;3.75;;;3.13;;
56653;SDS011;45096;52.302;4.634;2022-11-15T11:27:46;3.95;;;2.83;;
56653;SDS011;45096;52.302;4.634;2022-11-15T11:30:21;9.75;;;3.17;;
56653;SDS011;45096;52.302;4.634;2022-11-15T11:32:58;5.60;;;3.47;;
56653;SDS011;45096;52.302;4.634;2022-11-15T11:35:32;5.78;;;3.20;;
56653;SDS011;45096;52.302;4.634;2022-11-15T11:38:05;4.47;;;3.15;;
56653;SDS011;45096;52.302;4.634;2022-11-15T11:40:43;3.15;;;2.65;;
56653;SDS011;45096;52.302;4.634;2022-11-15T11:43:18;5.43;;;2.58;;
56653;SDS011;45096;52.302;4.634;2022-11-15T11:45:56;6.40;;;2.70;;
56653;SDS011;45096;52.302;4.634;2022-11-15T11:48:32;3.78;;;2.55;;
56653;SDS011;45096;52.302;4.634;2022-11-15T11:51:08;3.67;;;2.58;;
56653;SDS011;45096;52.302;4.634;2022-11-15T11:53:38;3.88;;;2.80;;
56653;SDS011;45096;52.302;4.634;2022-11-15T11:56:07;2.67;;;2.17;;
56653;SDS011;45096;52.302;4.634;2022-11-15T11:58:40;4.30;;;2.10;;
56653;SDS011;45096;52.302;4.634;2022-11-15T12:01:09;6.13;;;2.22;;
56653;SDS011;45096;52.302;4.634;2022-11-15T12:03:39;3.08;;;2.55;;
56653;SDS011;45096;52.302;4.634;2022-11-15T12:06:10;3.30;;;2.38;;
56653;SDS011;45096;52.302;4.634;2022-11-15T12:08:45;3.38;;;2.22;;
56653;SDS011;45096;52.302;4.634;2022-11-15T12:11:14;2.88;;;2.35;;
56653;SDS011;45096;52.302;4.634;2022-11-15T12:13:42;5.45;;;2.42;;
56653;SDS011;45096;52.302;4.634;2022-11-15T12:16:10;3.35;;;2.47;;
56653;SDS011;45096;52.302;4.634;2022-11-15T12:18:37;5.10;;;2.35;;
56653;SDS011;45096;52.302;4.634;2022-11-15T12:21:03;2.35;;;2.15;;
56653;SDS011;45096;52.302;4.634;2022-11-15T12:23:35;5.15;;;2.35;;
56653;SDS011;45096;52.302;4.634;2022-11-15T12:26:06;2.50;;;2.38;;
56653;SDS011;45096;52.302;4.634;2022-11-15T12:28:34;3.38;;;2.50;;
56653;SDS011;45096;52.302;4.634;2022-11-15T12:31:03;4.18;;;1.90;;
56653;SDS011;45096;52.302;4.634;2022-11-15T12:33:31;3.75;;;2.15;;
56653;SDS011;45096;52.302;4.634;2022-11-15T12:35:59;2.53;;;1.83;;
56653;SDS011;45096;52.302;4.634;2022-11-15T12:41:19;1.77;;;1.50;;
56653;SDS011;45096;52.302;4.634;2022-11-15T12:43:46;2.00;;;1.90;;
56653;SDS011;45096;52.302;4.634;2022-11-15T12:46:14;2.40;;;2.20;;
56653;SDS011;45096;52.302;4.634;2022-11-15T12:48:46;2.47;;;1.45;;
56653;SDS011;45096;52.302;4.634;2022-11-15T12:51:16;5.32;;;1.95;;
56653;SDS011;45096;52.302;4.634;2022-11-15T12:53:41;7.93;;;1.98;;
56653;SDS011;45096;52.302;4.634;2022-11-15T12:56:24;1.70;;;1.63;;
56653;SDS011;45096;52.302;4.634;2022-11-15T12:58:51;1.83;;;1.50;;
56653;SDS011;45096;52.302;4.634;2022-11-15T13:04:25;5.43;;;1.60;;
56653;SDS011;45096;52.302;4.634;2022-11-15T13:06:53;2.75;;;1.73;;
56653;SDS011;45096;52.302;4.634;2022-11-15T13:18:35;4.78;;;1.88;;
56653;SDS011;45096;52.302;4.634;2022-11-15T13:21:03;3.95;;;1.40;;
56653;SDS011;45096;52.302;4.634;2022-11-15T13:23:30;2.55;;;1.50;;
56653;SDS011;45096;52.302;4.634;2022-11-15T13:26:12;1.88;;;1.40;;
56653;SDS011;45096;52.302;4.634;2022-11-15T13:28:42;4.32;;;1.55;;
56653;SDS011;45096;52.302;4.634;2022-11-15T13:31:18;1.50;;;1.40;;
56653;SDS011;45096;52.302;4.634;2022-11-15T13:33:47;1.45;;;1.33;;
56653;SDS011;45096;52.302;4.634;2022-11-15T13:36:13;2.10;;;1.90;;
56653;SDS011;45096;52.302;4.634;2022-11-15T13:38:40;5.18;;;1.77;;
56653;SDS011;45096;52.302;4.634;2022-11-15T13:41:17;2.65;;;1.50;;
56653;SDS011;45096;52.302;4.634;2022-11-15T13:43:44;1.63;;;1.20;;
56653;SDS011;45096;52.302;4.634;2022-11-15T13:46:11;1.55;;;1.10;;
56653;SDS011;45096;52.302;4.634;2022-11-15T13:48:37;2.95;;;1.48;;
56653;SDS011;45096;52.302;4.634;2022-11-15T13:51:03;2.00;;;1.20;;
56653;SDS011;45096;52.302;4.634;2022-11-15T13:53:30;2.17;;;1.30;;
56653;SDS011;45096;52.302;4.634;2022-11-15T13:55:56;2.55;;;1.58;;
56653;SDS011;45096;52.302;4.634;2022-11-15T13:58:23;1.20;;;1.15;;
56653;SDS011;45096;52.302;4.634;2022-11-15T14:00:49;4.53;;;1.30;;
56653;SDS011;45096;52.302;4.634;2022-11-15T14:03:24;3.78;;;1.30;;
56653;SDS011;45096;52.302;4.634;2022-11-15T14:06:01;4.05;;;1.15;;
56653;SDS011;45096;52.302;4.634;2022-11-15T14:08:28;2.75;;;1.20;;
56653;SDS011;45096;52.302;4.634;2022-11-15T14:11:07;2.03;;;1.75;;
56653;SDS011;45096;52.302;4.634;2022-11-15T14:13:34;4.78;;;0.95;;
56653;SDS011;45096;52.302;4.634;2022-11-15T14:16:13;2.08;;;1.48;;
56653;SDS011;45096;52.302;4.634;2022-11-15T14:18:44;4.80;;;2.08;;
56653;SDS011;45096;52.302;4.634;2022-11-15T14:21:11;1.75;;;1.10;;
56653;SDS011;45096;52.302;4.634;2022-11-15T14:23:36;3.90;;;1.30;;
56653;SDS011;45096;52.302;4.634;2022-11-15T14:26:02;3.10;;;0.90;;
56653;SDS011;45096;52.302;4.634;2022-11-15T14:28:31;1.35;;;1.10;;
56653;SDS011;45096;52.302;4.634;2022-11-15T14:30:58;3.50;;;1.20;;
56653;SDS011;45096;52.302;4.634;2022-11-15T14:33:27;1.02;;;0.90;;
56653;SDS011;45096;52.302;4.634;2022-11-15T14:35:53;1.42;;;1.20;;
56653;SDS011;45096;52.302;4.634;2022-11-15T14:38:19;4.13;;;1.00;;
56653;SDS011;45096;52.302;4.634;2022-11-15T14:40:44;1.88;;;1.33;;
56653;SDS011;45096;52.302;4.634;2022-11-15T14:43:10;1.15;;;0.90;;
56653;SDS011;45096;52.302;4.634;2022-11-15T14:45:36;3.40;;;1.38;;
56653;SDS011;45096;52.302;4.634;2022-11-15T14:48:02;0.85;;;0.85;;
56653;SDS011;45096;52.302;4.634;2022-11-15T14:50:29;4.35;;;1.20;;
56653;SDS011;45096;52.302;4.634;2022-11-15T14:52:54;1.77;;;1.40;;
56653;SDS011;45096;52.302;4.634;2022-11-15T14:55:20;2.90;;;1.50;;
56653;SDS011;45096;52.302;4.634;2022-11-15T14:57:47;1.30;;;1.13;;
56653;SDS011;45096;52.302;4.634;2022-11-15T15:00:13;1.38;;;1.10;;